Time;durP1;ratioP1;P1;durP2;ratioP2;P2;SDS_P1;SDS_P2;PMS_P1;PMS_P2;Temp;Humidity;BMP_temperature;BMP_pressure;BME280_temperature;BME280_humidity;BME280_pressure;Samples;Min_cycle;Max_cycle;Signal;HPM_P1;HPM_P2
2023/12/28 00:01:48;;;;;;;2.77;1.37;;;7.70;99.90;;;;;;5073922;28;20225;-45
2023/12/28 00:04:17;;;;;;;2.03;1.50;;;7.70;99.90;;;;;;5066524;28;20248;-49
2023/12/28 00:06:43;;;;;;;1.83;1.40;;;7.70;99.90;;;;;;5070153;28;20199;-48
2023/12/28 00:09:10;;;;;;;1.30;0.97;;;7.80;99.90;;;;;;5049695;28;20729;-48
2023/12/28 00:11:37;;;;;;;2.13;1.60;;;7.90;99.90;;;;;;5045494;28;20300;-46
2023/12/28 00:14:04;;;;;;;1.97;1.57;;;8.00;99.90;;;;;;5077917;28;20217;-45
2023/12/28 00:16:33;;;;;;;1.73;1.30;;;8.00;99.90;;;;;;5071486;28;20213;-47
2023/12/28 00:19:01;;;;;;;1.20;1.10;;;7.90;99.90;;;;;;5055591;28;20206;-45
2023/12/28 00:21:30;;;;;;;2.43;1.60;;;7.90;99.90;;;;;;5076364;28;20218;-48
2023/12/28 00:23:56;;;;;;;1.70;1.20;;;7.90;99.90;;;;;;5055653;28;20270;-46
2023/12/28 00:26:23;;;;;;;1.60;1.50;;;7.90;99.90;;;;;;5054659;28;20872;-49
2023/12/28 00:29:01;;;;;;;3.37;1.93;;;7.80;99.90;;;;;;5069127;28;20212;-47
2023/12/28 00:31:28;;;;;;;2.20;1.37;;;7.80;99.90;;;;;;5064641;28;20218;-48
2023/12/28 00:33:55;;;;;;;2.03;1.50;;;7.90;99.90;;;;;;5064594;28;20210;-44
2023/12/28 00:36:22;;;;;;;3.93;1.80;;;7.80;99.90;;;;;;5071456;28;20206;-45
2023/12/28 00:38:50;;;;;;;2.73;1.60;;;7.80;99.90;;;;;;5056277;28;20741;-44
2023/12/28 00:41:17;;;;;;;3.57;1.90;;;7.80;99.90;;;;;;5071754;28;20224;-47
2023/12/28 00:43:44;;;;;;;4.83;1.53;;;7.80;99.90;;;;;;5048752;28;20610;-46
2023/12/28 00:46:11;;;;;;;1.70;1.60;;;7.70;99.90;;;;;;5074486;28;20190;-46
2023/12/28 00:48:38;;;;;;;2.43;1.80;;;7.70;99.90;;;;;;5072737;28;20569;-49
2023/12/28 00:51:05;;;;;;;3.50;1.77;;;7.60;99.90;;;;;;5072321;28;20243;-46
2023/12/28 00:53:32;;;;;;;2.63;1.17;;;7.70;99.90;;;;;;5083358;28;20243;-48
2023/12/28 00:56:00;;;;;;;1.90;1.30;;;7.60;99.90;;;;;;5048769;28;20772;-47
2023/12/28 00:58:27;;;;;;;1.57;1.40;;;7.60;99.90;;;;;;5046757;28;20209;-46
2023/12/28 01:00:56;;;;;;;2.00;1.67;;;7.60;99.90;;;;;;5068888;28;20663;-49
2023/12/28 01:03:23;;;;;;;2.93;1.83;;;7.60;99.90;;;;;;5072697;28;20209;-48
2023/12/28 01:05:52;;;;;;;2.90;1.50;;;7.50;99.90;;;;;;5072216;28;20198;-44
2023/12/28 01:08:19;;;;;;;3.10;2.00;;;7.50;99.90;;;;;;5077611;28;20446;-47
2023/12/28 01:10:46;;;;;;;2.40;1.57;;;7.60;99.90;;;;;;5059034;28;20197;-46
2023/12/28 01:13:14;;;;;;;4.03;1.70;;;7.60;99.90;;;;;;5045024;28;20765;-47
2023/12/28 01:15:41;;;;;;;2.87;1.70;;;7.60;99.90;;;;;;5075305;28;20260;-43
2023/12/28 01:18:08;;;;;;;1.67;1.57;;;7.60;99.90;;;;;;5074387;28;20182;-46
2023/12/28 01:20:35;;;;;;;2.30;1.73;;;7.60;99.90;;;;;;5073503;28;20690;-45
2023/12/28 01:23:02;;;;;;;4.43;1.90;;;7.60;99.90;;;;;;5073050;28;20217;-46
2023/12/28 01:25:29;;;;;;;2.90;1.50;;;7.60;99.90;;;;;;5082583;28;20197;-46
2023/12/28 01:27:56;;;;;;;2.30;1.80;;;7.60;99.90;;;;;;5059667;28;20576;-46
2023/12/28 01:30:24;;;;;;;1.70;1.30;;;7.60;99.90;;;;;;5046777;28;20211;-44
2023/12/28 01:32:51;;;;;;;2.53;1.87;;;7.60;99.90;;;;;;5069232;28;20219;-44
2023/12/28 01:35:18;;;;;;;3.47;1.60;;;7.60;99.90;;;;;;5073746;28;20201;-49
2023/12/28 01:37:45;;;;;;;2.73;1.80;;;7.70;99.90;;;;;;5072815;28;20229;-45
2023/12/28 01:40:12;;;;;;;2.80;1.83;;;7.70;99.90;;;;;;5079189;28;20188;-47
2023/12/28 01:42:39;;;;;;;1.83;1.73;;;7.70;99.90;;;;;;5054117;28;20902;-45
2023/12/28 01:45:07;;;;;;;2.73;1.90;;;7.70;99.90;;;;;;5051523;28;20201;-49
2023/12/28 01:47:35;;;;;;;3.00;2.03;;;7.80;99.90;;;;;;5082912;28;20194;-50
2023/12/28 01:50:04;;;;;;;2.67;2.13;;;7.80;99.90;;;;;;5069410;28;20190;-48
2023/12/28 01:52:31;;;;;;;4.13;1.80;;;7.80;99.90;;;;;;5072854;28;20610;-45
2023/12/28 01:54:58;;;;;;;1.97;1.60;;;7.80;99.90;;;;;;5072651;28;20995;-46
2023/12/28 01:57:25;;;;;;;2.70;1.70;;;7.80;99.90;;;;;;5061432;28;20214;-44
2023/12/28 01:59:53;;;;;;;3.30;2.00;;;7.80;99.90;;;;;;5061199;28;20199;-41
2023/12/28 02:02:20;;;;;;;2.13;2.03;;;7.90;99.90;;;;;;5076701;28;20226;-49
2023/12/28 02:04:48;;;;;;;2.20;2.00;;;7.90;99.90;;;;;;5074669;28;20198;-45
2023/12/28 02:07:15;;;;;;;3.50;2.17;;;7.90;99.90;;;;;;5060714;28;20285;-50
2023/12/28 02:09:42;;;;;;;5.93;2.37;;;7.90;99.90;;;;;;5071417;28;20224;-47
2023/12/28 02:12:09;;;;;;;2.30;2.10;;;8.00;99.90;;;;;;5058184;28;20228;-48
2023/12/28 02:14:36;;;;;;;4.17;2.30;;;8.10;99.90;;;;;;5078611;28;20614;-47
2023/12/28 02:17:09;;;;;;;2.90;2.30;;;8.10;99.90;;;;;;5049118;28;20238;-47
2023/12/28 02:19:44;;;;;;;2.03;1.83;;;8.10;99.90;;;;;;5070013;28;20182;-48
2023/12/28 02:22:15;;;;;;;2.60;1.73;;;8.10;99.90;;;;;;5072884;28;20923;-49
2023/12/28 02:25:08;;;;;;;2.30;1.90;;;8.10;99.90;;;;;;5071282;28;20198;-46
2023/12/28 02:27:37;;;;;;;2.23;1.90;;;8.20;99.90;;;;;;5060556;28;20273;-48
2023/12/28 02:30:06;;;;;;;2.63;1.70;;;8.20;99.90;;;;;;5057141;28;20190;-46
2023/12/28 02:32:44;;;;;;;2.77;1.53;;;8.20;99.90;;;;;;5054717;28;20223;-46
2023/12/28 02:35:18;;;;;;;2.20;2.00;;;8.30;99.90;;;;;;5073990;28;20294;-47
2023/12/28 02:37:48;;;;;;;2.73;1.80;;;8.20;99.90;;;;;;5063285;28;20218;-43
2023/12/28 02:40:19;;;;;;;2.77;1.70;;;8.20;99.90;;;;;;5072554;28;20781;-47
2023/12/28 02:42:46;;;;;;;3.47;2.20;;;8.20;99.90;;;;;;5058109;28;20823;-42
2023/12/28 02:45:14;;;;;;;2.23;1.93;;;8.20;99.90;;;;;;5072737;28;20203;-50
2023/12/28 02:47:41;;;;;;;3.17;2.10;;;8.30;99.90;;;;;;5052925;28;20251;-45
2023/12/28 02:50:08;;;;;;;5.20;2.63;;;8.30;99.90;;;;;;5068970;28;20684;-42
2023/12/28 02:52:35;;;;;;;3.47;2.33;;;8.30;99.90;;;;;;5071746;28;20220;-45
2023/12/28 02:55:02;;;;;;;3.37;2.63;;;8.30;99.90;;;;;;5056526;28;20218;-47
2023/12/28 02:57:30;;;;;;;3.87;2.40;;;8.30;99.90;;;;;;5077638;28;20213;-45
2023/12/28 03:00:01;;;;;;;2.97;1.90;;;8.30;99.90;;;;;;5059352;28;20863;-45
2023/12/28 03:02:28;;;;;;;5.80;2.67;;;8.30;99.90;;;;;;5078805;28;20225;-47
2023/12/28 03:04:55;;;;;;;3.87;2.60;;;8.30;99.90;;;;;;5048329;28;20264;-47
2023/12/28 03:07:22;;;;;;;2.53;2.33;;;8.30;99.90;;;;;;5070103;28;20259;-49
2023/12/28 03:09:48;;;;;;;2.70;2.50;;;8.20;99.90;;;;;;5071856;28;20266;-43
2023/12/28 03:12:17;;;;;;;2.27;2.07;;;8.20;99.90;;;;;;5073980;28;20241;-47
2023/12/28 03:14:45;;;;;;;3.27;2.00;;;8.20;99.90;;;;;;5061900;28;20202;-49
2023/12/28 03:17:12;;;;;;;2.80;1.83;;;8.20;99.90;;;;;;5078701;28;20928;-47
2023/12/28 03:19:39;;;;;;;2.60;2.40;;;8.20;99.90;;;;;;5050435;28;20276;-47
2023/12/28 03:22:06;;;;;;;4.90;2.57;;;8.20;99.90;;;;;;5092975;27;20758;-46
2023/12/28 03:24:33;;;;;;;2.37;2.13;;;8.20;99.90;;;;;;5066085;28;20260;-45
2023/12/28 03:27:00;;;;;;;2.93;2.23;;;8.20;99.90;;;;;;5068193;28;20194;-45
2023/12/28 03:29:28;;;;;;;3.03;2.23;;;8.20;99.90;;;;;;5057773;28;20198;-45
2023/12/28 03:31:57;;;;;;;2.37;1.87;;;8.30;99.90;;;;;;5074956;28;20229;-43
2023/12/28 03:34:26;;;;;;;2.83;2.10;;;8.30;99.90;;;;;;5077737;28;20202;-44
2023/12/28 03:36:53;;;;;;;2.90;2.50;;;8.30;99.90;;;;;;5047878;28;20213;-45
2023/12/28 03:39:19;;;;;;;2.50;1.80;;;8.20;99.90;;;;;;5077579;28;20200;-45
2023/12/28 03:41:47;;;;;;;2.37;2.00;;;8.30;99.90;;;;;;5052994;28;20236;-43
2023/12/28 03:44:14;;;;;;;3.17;1.77;;;8.30;99.90;;;;;;5053818;28;20951;-45
2023/12/28 03:46:41;;;;;;;4.40;2.10;;;8.20;99.90;;;;;;5079986;28;20197;-44
2023/12/28 03:49:09;;;;;;;5.13;2.13;;;8.20;99.90;;;;;;5076014;28;20193;-46
2023/12/28 03:51:36;;;;;;;2.17;1.97;;;8.20;99.90;;;;;;5050801;28;20206;-46
2023/12/28 03:54:03;;;;;;;2.30;1.87;;;8.20;99.90;;;;;;5076486;28;20257;-44
2023/12/28 03:56:32;;;;;;;2.77;2.30;;;8.20;99.90;;;;;;5065937;28;20301;-47
2023/12/28 03:58:59;;;;;;;7.23;2.60;;;8.20;99.90;;;;;;5070601;28;20216;-48
2023/12/28 04:01:26;;;;;;;4.37;2.10;;;8.20;99.90;;;;;;5052880;28;20283;-46
2023/12/28 04:03:53;;;;;;;2.67;2.37;;;8.20;99.90;;;;;;5071849;28;20195;-51
2023/12/28 04:06:21;;;;;;;2.60;2.40;;;8.20;99.90;;;;;;5060505;28;20283;-44
2023/12/28 04:08:48;;;;;;;3.23;2.57;;;8.10;99.90;;;;;;5061486;28;20196;-47
2023/12/28 04:11:15;;;;;;;2.73;2.27;;;8.10;99.90;;;;;;5077424;28;20757;-43
2023/12/28 04:13:43;;;;;;;3.63;2.30;;;8.10;99.90;;;;;;5062900;28;21615;-50
2023/12/28 04:16:13;;;;;;;1.87;1.77;;;8.10;99.90;;;;;;5056869;28;20668;-50
2023/12/28 04:18:40;;;;;;;4.53;2.27;;;8.10;99.90;;;;;;5067231;28;20210;-47
2023/12/28 04:21:09;;;;;;;5.83;2.50;;;8.10;99.90;;;;;;5083779;28;20190;-47
2023/12/28 04:23:39;;;;;;;3.83;2.43;;;8.10;99.90;;;;;;5052867;28;20281;-50
2023/12/28 04:26:06;;;;;;;3.80;2.40;;;8.10;99.90;;;;;;5065830;28;20201;-49
2023/12/28 04:28:34;;;;;;;3.50;2.70;;;8.10;99.90;;;;;;5063580;28;20857;-45
2023/12/28 04:31:03;;;;;;;4.33;2.43;;;8.10;99.90;;;;;;5066148;28;20649;-48
2023/12/28 04:33:31;;;;;;;4.83;2.30;;;8.10;99.90;;;;;;5053830;28;20194;-44
2023/12/28 04:35:58;;;;;;;2.90;2.50;;;8.10;99.90;;;;;;5074674;28;20652;-48
2023/12/28 04:38:24;;;;;;;5.80;2.47;;;8.20;99.90;;;;;;5047125;28;20209;-45
2023/12/28 04:40:53;;;;;;;2.40;2.20;;;8.10;99.90;;;;;;5073527;28;20717;-48
2023/12/28 04:43:20;;;;;;;2.93;2.60;;;8.10;99.90;;;;;;5064133;28;20258;-44
2023/12/28 04:45:46;;;;;;;2.33;2.13;;;8.10;99.90;;;;;;5065578;28;21554;-46
2023/12/28 04:48:13;;;;;;;5.20;2.23;;;8.10;99.90;;;;;;5056598;28;20201;-44
2023/12/28 04:50:40;;;;;;;5.23;2.53;;;8.10;99.90;;;;;;5075740;28;20275;-48
2023/12/28 04:53:07;;;;;;;2.90;2.13;;;8.10;99.90;;;;;;5053321;28;20290;-44
2023/12/28 04:55:34;;;;;;;4.57;2.27;;;8.10;99.90;;;;;;5067007;28;20186;-46
2023/12/28 04:58:02;;;;;;;5.87;2.30;;;8.10;99.90;;;;;;5076251;28;20217;-47
2023/12/28 05:00:29;;;;;;;2.53;2.33;;;8.10;99.90;;;;;;5052263;28;20202;-45
2023/12/28 05:02:55;;;;;;;3.63;2.00;;;8.00;99.90;;;;;;5077241;28;20233;-47
2023/12/28 05:05:23;;;;;;;2.10;1.83;;;8.00;99.90;;;;;;5046383;28;20534;-45
2023/12/28 05:07:50;;;;;;;3.07;2.33;;;8.00;99.90;;;;;;5075549;28;20210;-47
2023/12/28 05:10:17;;;;;;;2.63;2.07;;;8.00;99.90;;;;;;5055235;28;20213;-45
2023/12/28 05:12:44;;;;;;;5.03;2.60;;;8.00;99.90;;;;;;5078276;28;20232;-45
2023/12/28 05:15:12;;;;;;;3.57;2.67;;;7.90;99.90;;;;;;5077503;28;20186;-44
2023/12/28 05:17:39;;;;;;;3.00;2.40;;;7.90;99.90;;;;;;5058536;28;20225;-46
2023/12/28 05:20:07;;;;;;;3.77;2.30;;;7.90;99.90;;;;;;5060150;28;20759;-52
2023/12/28 05:22:34;;;;;;;4.07;2.27;;;7.90;99.90;;;;;;5066608;28;20233;-50
2023/12/28 05:25:02;;;;;;;5.93;2.10;;;7.90;99.90;;;;;;5050514;28;20206;-49
2023/12/28 05:27:29;;;;;;;6.33;2.20;;;7.90;99.90;;;;;;5070537;28;20197;-46
2023/12/28 05:29:55;;;;;;;2.37;2.00;;;7.90;99.90;;;;;;5066963;28;20202;-49
2023/12/28 05:32:23;;;;;;;2.53;2.07;;;7.90;99.90;;;;;;5060224;28;20283;-46
2023/12/28 05:34:50;;;;;;;4.97;2.30;;;7.90;99.90;;;;;;5080269;28;20190;-49
2023/12/28 05:37:17;;;;;;;5.83;2.90;;;7.90;99.90;;;;;;5051899;28;20700;-46
2023/12/28 05:39:44;;;;;;;5.07;2.80;;;8.00;99.90;;;;;;5054462;28;20545;-47
2023/12/28 05:42:11;;;;;;;3.50;2.50;;;8.00;99.90;;;;;;5074347;28;20214;-47
2023/12/28 05:44:38;;;;;;;4.60;2.50;;;8.00;99.90;;;;;;5080935;28;20695;-45
2023/12/28 05:47:05;;;;;;;3.40;2.70;;;8.00;99.90;;;;;;5075800;28;20216;-47
2023/12/28 05:49:33;;;;;;;2.87;2.57;;;8.00;99.90;;;;;;5071327;28;20194;-50
2023/12/28 05:52:00;;;;;;;4.17;2.40;;;8.00;99.90;;;;;;5060538;28;20240;-46
2023/12/28 05:54:26;;;;;;;2.53;2.20;;;8.10;99.90;;;;;;5069183;28;20202;-45
2023/12/28 05:56:53;;;;;;;5.13;2.80;;;8.10;99.90;;;;;;5056978;28;20194;-44
2023/12/28 05:59:21;;;;;;;4.83;2.60;;;8.00;99.90;;;;;;5077836;28;20557;-45
2023/12/28 06:01:48;;;;;;;2.30;2.10;;;8.00;99.90;;;;;;5070859;28;20229;-46
2023/12/28 06:04:15;;;;;;;3.57;2.10;;;8.00;99.90;;;;;;5067328;28;20225;-44
2023/12/28 06:06:43;;;;;;;2.07;1.97;;;8.00;99.90;;;;;;5055743;28;20309;-48
2023/12/28 06:09:10;;;;;;;2.57;2.33;;;8.00;99.90;;;;;;5072403;28;20193;-45
2023/12/28 06:11:37;;;;;;;3.93;1.87;;;8.10;99.90;;;;;;5051097;28;20213;-46
2023/12/28 06:14:04;;;;;;;5.17;2.00;;;8.20;99.90;;;;;;5079893;28;20202;-45
2023/12/28 06:16:33;;;;;;;2.20;2.00;;;8.20;99.90;;;;;;5071538;28;20190;-45
2023/12/28 06:19:01;;;;;;;2.80;2.60;;;8.30;99.90;;;;;;5072027;28;20217;-47
2023/12/28 06:21:28;;;;;;;5.20;2.97;;;8.30;99.90;;;;;;5049849;28;20222;-45
2023/12/28 06:23:57;;;;;;;3.73;2.23;;;8.40;99.90;;;;;;5083209;28;20222;-46
2023/12/28 06:26:24;;;;;;;6.43;2.20;;;8.40;99.90;;;;;;5044595;28;20730;-44
2023/12/28 06:28:51;;;;;;;4.23;1.57;;;8.50;99.90;;;;;;5074855;28;20198;-48
2023/12/28 06:31:18;;;;;;;4.77;2.27;;;8.50;99.90;;;;;;5078358;28;20210;-44
2023/12/28 06:33:45;;;;;;;5.57;2.03;;;8.60;99.90;;;;;;5067439;28;20896;-45
2023/12/28 06:36:13;;;;;;;6.60;2.20;;;8.60;99.90;;;;;;5060388;28;20286;-45
2023/12/28 06:38:39;;;;;;;2.17;1.90;;;8.70;99.90;;;;;;5060074;28;20214;-45
2023/12/28 06:41:13;;;;;;;2.90;1.97;;;8.70;99.90;;;;;;5042866;28;20228;-44
2023/12/28 06:43:40;;;;;;;8.00;2.57;;;8.80;99.90;;;;;;5081906;28;20185;-46
2023/12/28 06:46:06;;;;;;;2.63;2.07;;;8.80;99.90;;;;;;5080631;28;20251;-45
2023/12/28 06:48:33;;;;;;;5.83;2.57;;;8.90;99.90;;;;;;5066629;28;20205;-49
2023/12/28 06:51:00;;;;;;;2.67;2.10;;;8.90;99.90;;;;;;5070302;28;20567;-48
2023/12/28 06:53:27;;;;;;;3.03;2.23;;;9.00;99.90;;;;;;5052206;28;20229;-48
2023/12/28 06:55:54;;;;;;;5.10;2.07;;;9.00;99.90;;;;;;5071644;28;20247;-47
2023/12/28 06:58:22;;;;;;;5.07;2.13;;;9.00;99.90;;;;;;5052882;28;20202;-44
2023/12/28 07:00:49;;;;;;;4.53;1.97;;;9.00;99.90;;;;;;5078966;28;20197;-50
2023/12/28 07:03:16;;;;;;;4.97;2.30;;;9.00;99.90;;;;;;5070420;28;20214;-45
2023/12/28 07:05:43;;;;;;;3.57;2.17;;;9.10;99.90;;;;;;5062603;28;20201;-47
2023/12/28 07:08:10;;;;;;;4.87;2.50;;;9.10;99.90;;;;;;5080625;28;20273;-43
2023/12/28 07:10:37;;;;;;;3.63;1.90;;;9.10;99.90;;;;;;5054317;28;20201;-47
2023/12/28 07:13:04;;;;;;;3.80;1.90;;;9.10;99.90;;;;;;5044533;28;20256;-45
2023/12/28 07:15:32;;;;;;;7.33;2.30;;;9.10;99.90;;;;;;5076417;28;20197;-44
2023/12/28 07:17:59;;;;;;;3.30;1.80;;;9.10;99.90;;;;;;5068277;28;20263;-46
2023/12/28 07:20:26;;;;;;;9.53;1.60;;;9.10;99.90;;;;;;5066341;28;20194;-44
2023/12/28 07:22:53;;;;;;;2.10;1.90;;;9.10;99.90;;;;;;5070043;28;20225;-44
2023/12/28 07:25:20;;;;;;;3.33;1.63;;;9.20;99.90;;;;;;5062300;28;20201;-44
2023/12/28 07:27:47;;;;;;;3.83;2.23;;;9.20;99.90;;;;;;5058872;28;20250;-43
2023/12/28 07:30:16;;;;;;;4.83;1.90;;;9.20;99.90;;;;;;5061515;28;20185;-43
2023/12/28 07:32:45;;;;;;;4.33;1.70;;;9.20;99.90;;;;;;5069101;28;20222;-44
2023/12/28 07:35:12;;;;;;;3.47;1.90;;;9.30;99.90;;;;;;5067032;28;20329;-47
2023/12/28 07:37:39;;;;;;;3.83;1.87;;;9.30;99.90;;;;;;5066255;28;20251;-42
2023/12/28 07:40:07;;;;;;;5.63;1.70;;;9.20;99.90;;;;;;5051745;28;20218;-46
2023/12/28 07:42:34;;;;;;;1.80;1.50;;;9.20;99.90;;;;;;5075765;28;20221;-44
2023/12/28 07:45:01;;;;;;;9.87;2.30;;;9.20;99.90;;;;;;5047849;28;20212;-45
2023/12/28 07:47:28;;;;;;;1.73;1.63;;;9.20;99.90;;;;;;5080947;28;20205;-44
2023/12/28 07:49:56;;;;;;;4.23;1.73;;;9.20;99.90;;;;;;5069610;28;20286;-46
2023/12/28 07:52:23;;;;;;;4.77;2.00;;;9.20;99.90;;;;;;5056683;28;20214;-47
2023/12/28 07:54:50;;;;;;;3.37;2.13;;;9.20;99.90;;;;;;5073447;28;20267;-49
2023/12/28 07:57:17;;;;;;;3.77;2.13;;;9.20;99.90;;;;;;5057071;28;20198;-46
2023/12/28 07:59:44;;;;;;;3.83;2.00;;;9.20;99.90;;;;;;5051464;28;20218;-41
2023/12/28 08:02:10;;;;;;;2.27;1.87;;;9.20;99.90;;;;;;5065884;28;20225;-43
2023/12/28 08:04:37;;;;;;;3.93;2.00;;;9.30;99.90;;;;;;5048252;28;20917;-43
2023/12/28 08:07:06;;;;;;;3.57;2.13;;;9.30;99.90;;;;;;5070574;28;20274;-47
2023/12/28 08:09:34;;;;;;;3.00;1.57;;;9.30;99.90;;;;;;5055689;28;20278;-45
2023/12/28 08:12:02;;;;;;;4.13;1.80;;;9.30;99.90;;;;;;5066050;28;20728;-47
2023/12/28 08:14:29;;;;;;;5.47;1.70;;;9.30;99.90;;;;;;5067597;28;20205;-43
2023/12/28 08:16:56;;;;;;;4.73;1.60;;;9.40;99.90;;;;;;5049443;28;20223;-47
2023/12/28 08:19:23;;;;;;;4.63;1.90;;;9.40;99.90;;;;;;5061914;28;20697;-47
2023/12/28 08:21:50;;;;;;;3.53;1.33;;;9.50;99.90;;;;;;5069703;28;20218;-44
2023/12/28 08:24:18;;;;;;;2.90;1.63;;;9.50;99.90;;;;;;5071726;28;20676;-44
2023/12/28 08:26:45;;;;;;;2.57;1.10;;;9.60;99.90;;;;;;5048390;28;20210;-43
2023/12/28 08:29:12;;;;;;;4.53;1.90;;;9.60;99.90;;;;;;5072781;28;20217;-45
2023/12/28 08:31:39;;;;;;;5.70;1.60;;;9.60;99.90;;;;;;5047047;28;21077;-45
2023/12/28 08:34:05;;;;;;;5.87;1.77;;;9.70;99.90;;;;;;5072249;28;20275;-44
2023/12/28 08:36:32;;;;;;;3.67;1.27;;;9.80;99.90;;;;;;5066415;28;20711;-43
2023/12/28 08:38:59;;;;;;;5.73;1.70;;;9.80;99.90;;;;;;5057270;28;20218;-45
2023/12/28 08:41:27;;;;;;;7.07;1.80;;;9.90;99.90;;;;;;5058973;28;20225;-43
2023/12/28 08:43:54;;;;;;;3.00;1.50;;;9.90;99.90;;;;;;5058931;28;20686;-45
2023/12/28 08:46:22;;;;;;;8.10;1.77;;;9.90;99.90;;;;;;5051146;28;20239;-44
2023/12/28 08:48:49;;;;;;;4.57;1.80;;;9.90;99.90;;;;;;5064833;28;20198;-43
2023/12/28 08:51:16;;;;;;;8.10;2.17;;;9.90;99.90;;;;;;5075366;28;20226;-43
2023/12/28 08:53:42;;;;;;;5.10;1.43;;;9.90;99.90;;;;;;5056815;28;20209;-44
2023/12/28 08:56:18;;;;;;;5.20;1.93;;;10.00;99.90;;;;;;5076413;28;20205;-44
2023/12/28 08:58:47;;;;;;;3.37;1.83;;;10.00;99.90;;;;;;5051788;28;20292;-45
2023/12/28 09:01:18;;;;;;;4.07;1.37;;;10.10;99.90;;;;;;5068332;28;20225;-44
2023/12/28 09:03:45;;;;;;;4.03;1.73;;;10.10;99.90;;;;;;5046009;28;20194;-45
2023/12/28 09:06:12;;;;;;;4.03;1.70;;;10.10;99.90;;;;;;5074413;28;20247;-43
2023/12/28 09:08:42;;;;;;;2.37;1.40;;;10.10;99.90;;;;;;5069129;28;20299;-44
2023/12/28 09:11:11;;;;;;;3.00;1.07;;;10.10;99.90;;;;;;5073084;28;20198;-44
2023/12/28 09:13:37;;;;;;;7.90;1.67;;;10.20;99.90;;;;;;5065994;28;20194;-45
2023/12/28 09:16:06;;;;;;;7.27;1.63;;;10.20;99.90;;;;;;5057894;28;20887;-44
2023/12/28 09:18:33;;;;;;;6.50;1.80;;;10.20;99.90;;;;;;5045173;28;20299;-50
2023/12/28 09:21:00;;;;;;;4.90;1.10;;;10.20;99.90;;;;;;5080308;28;20202;-45
2023/12/28 09:23:27;;;;;;;3.20;1.13;;;10.30;99.90;;;;;;5070282;28;20603;-47
2023/12/28 09:25:54;;;;;;;8.43;1.90;;;10.30;99.90;;;;;;5069212;28;20221;-50
2023/12/28 09:28:21;;;;;;;3.73;1.87;;;10.40;99.90;;;;;;5067989;28;20672;-48
2023/12/28 09:30:47;;;;;;;6.97;1.40;;;10.40;99.90;;;;;;5057317;28;20264;-45
2023/12/28 09:33:16;;;;;;;8.57;2.13;;;10.40;99.90;;;;;;5071868;28;20279;-44
2023/12/28 09:35:43;;;;;;;8.03;1.50;;;10.40;99.90;;;;;;5055847;28;20213;-46
2023/12/28 09:38:10;;;;;;;6.77;1.27;;;10.50;99.90;;;;;;5080442;28;20194;-46
2023/12/28 09:40:37;;;;;;;5.80;1.53;;;10.50;99.90;;;;;;5066623;28;20254;-45
2023/12/28 09:43:14;;;;;;;3.87;1.40;;;10.50;99.90;;;;;;5082569;28;20641;-46
2023/12/28 09:45:39;;;;;;;3.67;1.57;;;10.50;99.90;;;;;;5065353;28;20531;-46
2023/12/28 09:48:07;;;;;;;8.77;1.97;;;10.50;99.90;;;;;;5052091;28;20243;-46
2023/12/28 09:50:35;;;;;;;4.97;1.17;;;10.60;99.90;;;;;;5056480;28;20198;-46
2023/12/28 09:53:03;;;;;;;5.43;1.77;;;10.60;99.90;;;;;;5075976;28;20282;-48
2023/12/28 09:55:30;;;;;;;6.87;1.63;;;10.60;99.90;;;;;;5068524;28;20232;-45
2023/12/28 09:58:00;;;;;;;9.83;1.70;;;10.60;99.90;;;;;;5080080;28;20281;-48
2023/12/28 10:00:28;;;;;;;7.67;1.50;;;10.60;99.90;;;;;;5068520;28;20222;-45
2023/12/28 10:02:54;;;;;;;3.63;1.70;;;10.60;99.90;;;;;;5054840;28;20223;-47
2023/12/28 10:05:21;;;;;;;6.93;1.63;;;10.70;99.90;;;;;;5062644;28;20230;-45
2023/12/28 10:07:51;;;;;;;4.47;1.90;;;10.70;99.90;;;;;;5051621;28;20214;-48
2023/12/28 10:10:19;;;;;;;5.07;1.50;;;10.70;99.90;;;;;;5065112;28;20209;-47
2023/12/28 10:12:47;;;;;;;5.90;1.67;;;10.70;99.90;;;;;;5075882;28;20221;-44
2023/12/28 10:15:14;;;;;;;5.03;1.47;;;10.70;99.90;;;;;;5062072;28;21130;-46
2023/12/28 10:17:41;;;;;;;7.50;1.77;;;10.70;99.90;;;;;;5088398;28;20197;-52
2023/12/28 10:20:09;;;;;;;8.53;1.43;;;10.80;99.90;;;;;;5043596;28;20268;-52
2023/12/28 10:22:36;;;;;;;6.27;1.63;;;10.80;99.90;;;;;;5053802;28;20224;-52
2023/12/28 10:25:05;;;;;;;7.83;1.43;;;10.80;99.90;;;;;;5071516;28;20205;-48
2023/12/28 10:27:34;;;;;;;6.63;1.60;;;10.80;99.90;;;;;;5067097;28;20221;-53
2023/12/28 10:30:01;;;;;;;7.40;1.97;;;10.80;99.90;;;;;;5072632;28;20247;-52
2023/12/28 10:32:27;;;;;;;7.47;2.07;;;10.80;99.90;;;;;;5073423;28;20229;-49
2023/12/28 10:34:54;;;;;;;5.53;2.00;;;10.80;99.90;;;;;;5061857;28;20711;-49
2023/12/28 10:37:22;;;;;;;6.77;1.70;;;10.80;99.90;;;;;;5073442;28;20197;-50
2023/12/28 10:39:50;;;;;;;6.10;1.43;;;10.80;99.90;;;;;;5053432;28;20873;-49
2023/12/28 10:42:28;;;;;;;5.23;1.70;;;10.80;99.90;;;;;;5056241;28;20949;-51
2023/12/28 10:45:02;;;;;;;4.17;1.30;;;10.80;99.90;;;;;;5079747;28;20274;-53
2023/12/28 10:47:32;;;;;;;3.80;1.07;;;10.80;99.90;;;;;;5074591;28;20872;-52
2023/12/28 10:50:03;;;;;;;8.40;2.27;;;10.80;99.90;;;;;;5074446;28;20273;-49
2023/12/28 10:52:31;;;;;;;6.07;2.00;;;10.90;99.90;;;;;;5062322;28;20221;-49
2023/12/28 10:55:11;;;;;;;4.00;1.53;;;10.90;99.90;;;;;;5054604;28;20202;-51
2023/12/28 10:57:50;;;;;;;5.13;1.50;;;10.90;99.90;;;;;;5059712;28;20210;-51
2023/12/28 11:00:21;;;;;;;7.77;2.33;;;11.00;99.90;;;;;;5072539;28;20205;-51
2023/12/28 11:02:52;;;;;;;6.93;1.67;;;11.00;99.90;;;;;;5051394;28;20226;-52
2023/12/28 11:05:21;;;;;;;7.63;1.73;;;11.00;99.90;;;;;;5080082;28;20199;-50
2023/12/28 11:07:52;;;;;;;4.20;1.30;;;11.10;99.90;;;;;;5066771;28;20198;-52
2023/12/28 11:10:20;;;;;;;5.40;1.90;;;11.10;99.90;;;;;;5058129;28;20606;-53
2023/12/28 11:12:50;;;;;;;5.60;1.40;;;11.10;99.90;;;;;;5067175;28;20345;-50
2023/12/28 11:15:18;;;;;;;7.57;1.80;;;11.10;99.90;;;;;;5070414;28;20642;-49
2023/12/28 11:17:45;;;;;;;6.67;2.00;;;11.10;99.90;;;;;;5072551;28;20202;-53
2023/12/28 11:20:12;;;;;;;6.63;2.70;;;11.20;99.90;;;;;;5080615;28;20213;-50
2023/12/28 11:22:40;;;;;;;6.03;2.07;;;11.20;99.90;;;;;;5062917;28;20218;-49
2023/12/28 11:25:15;;;;;;;6.17;1.70;;;11.20;99.90;;;;;;5057859;28;20656;-47
2023/12/28 11:27:41;;;;;;;6.17;1.60;;;11.10;99.90;;;;;;5064609;28;20201;-52
2023/12/28 11:30:11;;;;;;;8.13;1.80;;;11.10;99.90;;;;;;5075919;28;20326;-51
2023/12/28 11:32:39;;;;;;;9.60;2.47;;;11.10;99.90;;;;;;5068650;28;20252;-53
2023/12/28 11:35:09;;;;;;;8.77;2.07;;;11.10;99.90;;;;;;5071568;28;20233;-52
2023/12/28 11:37:39;;;;;;;9.57;2.17;;;11.10;99.90;;;;;;5063808;28;20302;-50
2023/12/28 11:40:14;;;;;;;7.50;2.20;;;11.10;99.90;;;;;;5064055;28;20292;-51
2023/12/28 11:42:51;;;;;;;7.77;2.10;;;11.10;99.90;;;;;;5079604;28;20216;-49
2023/12/28 11:45:20;;;;;;;6.53;1.87;;;11.10;99.90;;;;;;5069152;28;20204;-49
2023/12/28 11:47:47;;;;;;;6.37;1.67;;;11.10;99.90;;;;;;5072606;28;20280;-50
2023/12/28 11:50:14;;;;;;;10.03;2.30;;;11.10;99.90;;;;;;5081012;28;20194;-49
2023/12/28 11:52:41;;;;;;;8.53;1.87;;;11.10;99.90;;;;;;5056920;28;20218;-52
2023/12/28 11:55:08;;;;;;;7.77;1.80;;;11.10;99.90;;;;;;5077803;28;20190;-50
2023/12/28 11:57:37;;;;;;;11.57;2.70;;;11.20;99.90;;;;;;5054906;28;20211;-52
2023/12/28 12:00:06;;;;;;;13.50;2.13;;;11.20;99.90;;;;;;5063464;28;20233;-52
2023/12/28 12:02:35;;;;;;;4.70;1.63;;;11.20;99.90;;;;;;5070293;28;20229;-48
2023/12/28 12:05:02;;;;;;;10.70;2.37;;;11.20;99.90;;;;;;5071005;28;20209;-53
2023/12/28 12:07:30;;;;;;;11.67;2.50;;;11.20;99.90;;;;;;5053392;28;20329;-50
2023/12/28 12:09:57;;;;;;;7.60;2.37;;;11.20;99.90;;;;;;5077143;28;20665;-50
2023/12/28 12:12:24;;;;;;;9.30;2.17;;;11.20;99.90;;;;;;5051025;28;20270;-53
2023/12/28 12:14:51;;;;;;;9.53;3.37;;;11.20;99.90;;;;;;5072443;28;20912;-53
2023/12/28 12:17:19;;;;;;;14.00;2.57;;;11.20;99.90;;;;;;5069181;28;20204;-48
2023/12/28 12:19:48;;;;;;;10.43;2.13;;;11.20;99.90;;;;;;5062120;28;20275;-53
2023/12/28 12:22:16;;;;;;;7.13;2.13;;;11.20;99.90;;;;;;5069970;28;20218;-53
2023/12/28 12:24:46;;;;;;;8.53;2.20;;;11.30;99.90;;;;;;5058740;28;20198;-50
2023/12/28 12:27:13;;;;;;;8.20;2.03;;;11.30;99.90;;;;;;5041018;28;20202;-51
2023/12/28 12:29:40;;;;;;;9.27;2.30;;;11.30;99.90;;;;;;5066322;28;20686;-49
2023/12/28 12:32:07;;;;;;;7.77;2.33;;;11.30;99.90;;;;;;5067989;28;20234;-51
2023/12/28 12:34:34;;;;;;;8.10;2.20;;;11.30;99.90;;;;;;5064425;28;20316;-48
2023/12/28 12:37:03;;;;;;;6.57;2.20;;;11.20;99.90;;;;;;5074999;28;20277;-51
2023/12/28 12:39:32;;;;;;;12.03;2.23;;;11.20;99.90;;;;;;5051496;28;20218;-51
2023/12/28 12:41:59;;;;;;;12.30;2.47;;;11.20;99.90;;;;;;5078359;28;20687;-50
2023/12/28 12:44:26;;;;;;;11.43;2.30;;;11.20;99.90;;;;;;5058100;28;20212;-51
2023/12/28 12:46:58;;;;;;;13.10;2.27;;;11.20;99.90;;;;;;5068714;28;20198;-51
2023/12/28 12:49:25;;;;;;;10.13;2.53;;;11.20;99.90;;;;;;5061709;28;20260;-49
2023/12/28 12:51:52;;;;;;;11.60;2.07;;;11.30;99.90;;;;;;5086288;28;20222;-48
2023/12/28 12:54:20;;;;;;;6.97;1.90;;;11.30;99.90;;;;;;5055403;28;20806;-48
2023/12/28 12:56:48;;;;;;;4.40;1.87;;;11.30;99.90;;;;;;5079601;28;20241;-49